Time;durP1;ratioP1;P1;durP2;ratioP2;P2;SDS_P1;SDS_P2;PMS_P1;PMS_P2;Temp;Humidity;BMP_temperature;BMP_pressure;BME280_temperature;BME280_humidity;BME280_pressure;Samples;Min_cycle;Max_cycle;Signal;HPM_P1;HPM_P2
2024/03/01 00:01:57;;;;;;;28.40;17.73;;;5.30;99.90;;;;;;5025628;28;20659;-86
2024/03/01 00:04:23;;;;;;;28.50;18.73;;;5.50;99.90;;;;;;5025825;28;20228;-86
2024/03/01 00:06:48;;;;;;;26.90;18.40;;;6.10;99.90;;;;;;5028670;28;21421;-86
2024/03/01 00:09:15;;;;;;;27.33;18.97;;;5.90;99.90;;;;;;5022370;28;20210;-86
2024/03/01 00:11:40;;;;;;;30.13;19.27;;;6.00;99.90;;;;;;5026733;28;20609;-86
2024/03/01 00:14:06;;;;;;;27.77;19.60;;;5.80;99.90;;;;;;5025311;28;20249;-86
2024/03/01 00:16:32;;;;;;;29.07;19.30;;;5.50;99.90;;;;;;5027868;28;20244;-86
2024/03/01 00:18:57;;;;;;;30.23;17.60;;;6.00;99.90;;;;;;5022852;28;20530;-86
2024/03/01 00:21:23;;;;;;;26.47;19.47;;;6.10;99.90;;;;;;5024692;28;20528;-86
2024/03/01 00:23:49;;;;;;;25.10;17.77;;;6.10;99.90;;;;;;5022297;28;20598;-86
2024/03/01 00:26:14;;;;;;;24.70;17.47;;;5.70;99.90;;;;;;5029463;28;20458;-87
2024/03/01 00:28:40;;;;;;;26.43;17.67;;;6.20;99.90;;;;;;5026134;28;20178;-86
2024/03/01 00:31:06;;;;;;;30.50;19.10;;;6.40;99.90;;;;;;5024454;28;20636;-87
2024/03/01 00:33:32;;;;;;;26.77;18.15;;;5.90;99.90;;;;;;5025677;28;20177;-87
2024/03/01 00:35:58;;;;;;;27.45;19.15;;;6.20;99.90;;;;;;5023444;28;20210;-87
2024/03/01 00:38:24;;;;;;;28.83;19.40;;;6.50;99.90;;;;;;5027744;28;20174;-87
2024/03/01 00:40:49;;;;;;;27.30;19.03;;;6.20;99.90;;;;;;5020212;28;20507;-85
2024/03/01 00:43:15;;;;;;;25.10;17.43;;;6.20;99.90;;;;;;5027354;28;20534;-87
2024/03/01 00:45:40;;;;;;;25.47;18.00;;;6.80;99.90;;;;;;5031977;28;20202;-87
2024/03/01 00:48:13;;;;;;;30.83;19.77;;;6.80;99.90;;;;;;5038880;28;20198;-87
2024/03/01 00:50:40;;;;;;;24.50;18.45;;;6.20;99.90;;;;;;5027386;28;20225;-87
2024/03/01 00:53:07;;;;;;;24.70;17.70;;;6.50;99.90;;;;;;5028762;28;20178;-87
2024/03/01 00:55:35;;;;;;;26.90;18.35;;;6.40;99.90;;;;;;5027966;28;20735;-87
2024/03/01 00:58:01;;;;;;;29.35;19.50;;;6.70;99.90;;;;;;5028791;28;20197;-87
2024/03/01 01:00:28;;;;;;;29.77;19.23;;;6.10;99.90;;;;;;5027371;28;20625;-86
2024/03/01 01:02:54;;;;;;;28.90;19.10;;;6.20;99.90;;;;;;5029004;28;20645;-86
2024/03/01 01:05:19;;;;;;;30.55;20.50;;;6.30;99.90;;;;;;5029271;28;20278;-86
2024/03/01 01:07:45;;;;;;;26.40;17.93;;;6.40;99.90;;;;;;5030742;28;20710;-86
2024/03/01 01:10:10;;;;;;;31.27;19.47;;;5.70;99.90;;;;;;5028828;28;20214;-87
2024/03/01 01:12:37;;;;;;;25.93;19.10;;;6.40;99.90;;;;;;5033183;28;20184;-87
2024/03/01 01:15:03;;;;;;;27.40;18.63;;;6.30;99.90;;;;;;5028101;28;20193;-87
2024/03/01 01:17:30;;;;;;;28.55;19.70;;;6.00;99.90;;;;;;5028682;28;20641;-86
2024/03/01 01:19:57;;;;;;;30.75;19.60;;;6.70;99.90;;;;;;5028076;28;20622;-86
2024/03/01 01:22:22;;;;;;;25.77;18.40;;;6.20;99.90;;;;;;5035472;28;20198;-87
2024/03/01 01:24:48;;;;;;;27.13;18.70;;;6.30;99.90;;;;;;5034259;28;20259;-88
2024/03/01 01:27:13;;;;;;;28.27;18.87;;;6.30;99.90;;;;;;5028651;28;20210;-87
2024/03/01 01:29:39;;;;;;;27.20;19.50;;;6.30;99.90;;;;;;5028170;28;20216;-87
2024/03/01 01:32:05;;;;;;;31.67;19.77;;;6.40;99.90;;;;;;5028378;28;20617;-88
2024/03/01 01:34:30;;;;;;;28.10;18.63;;;6.40;99.90;;;;;;5033756;28;20229;-86
2024/03/01 01:36:56;;;;;;;31.90;18.53;;;6.90;99.90;;;;;;5030720;28;20210;-87
2024/03/01 01:39:22;;;;;;;28.03;18.23;;;6.80;99.90;;;;;;5025961;28;20194;-87
2024/03/01 01:41:47;;;;;;;28.53;19.50;;;6.50;99.90;;;;;;5031100;28;20209;-87
2024/03/01 01:44:13;;;;;;;27.93;18.90;;;7.10;99.90;;;;;;5029882;28;20821;-87
2024/03/01 01:46:38;;;;;;;26.67;18.70;;;6.30;99.90;;;;;;5028436;28;20214;-87
2024/03/01 01:49:05;;;;;;;26.60;19.10;;;7.10;99.90;;;;;;5028394;28;20200;-86
2024/03/01 01:51:31;;;;;;;27.08;17.50;;;6.40;99.90;;;;;;5028691;28;20206;-86
2024/03/01 01:53:57;;;;;;;30.60;20.25;;;7.10;99.90;;;;;;5037048;28;20182;-86
2024/03/01 01:56:24;;;;;;;24.93;17.27;;;6.80;99.90;;;;;;5043220;28;20279;-86
2024/03/01 01:58:50;;;;;;;29.08;19.02;;;6.40;99.90;;;;;;5025000;28;20202;-87
2024/03/01 02:01:16;;;;;;;26.20;19.83;;;7.00;99.90;;;;;;5026088;28;20190;-87
2024/03/01 02:03:42;;;;;;;31.73;19.05;;;7.00;99.90;;;;;;5027855;28;20652;-87
2024/03/01 02:06:07;;;;;;;28.50;19.27;;;7.50;99.90;;;;;;5029198;28;20309;-87
2024/03/01 02:08:34;;;;;;;28.20;19.03;;;7.40;99.90;;;;;;5027500;28;20186;-87
2024/03/01 02:11:01;;;;;;;27.35;20.30;;;7.60;99.90;;;;;;5029609;28;20230;-87
2024/03/01 02:13:27;;;;;;;28.73;18.83;;;6.60;99.90;;;;;;5028793;28;20201;-87
2024/03/01 02:15:53;;;;;;;27.23;18.83;;;7.70;99.90;;;;;;5026342;28;20234;-87
2024/03/01 02:18:19;;;;;;;28.47;18.57;;;7.40;99.90;;;;;;5027294;28;21178;-88
2024/03/01 02:21:11;;;;;;;29.63;19.87;;;7.50;99.90;;;;;;5024764;28;20291;-85
2024/03/01 02:23:37;;;;;;;31.77;19.48;;;7.00;99.90;;;;;;5019075;28;20198;-87
2024/03/01 02:26:04;;;;;;;25.77;19.02;;;6.70;99.90;;;;;;5028338;28;20210;-87
2024/03/01 02:28:30;;;;;;;28.83;18.70;;;7.10;99.90;;;;;;5029604;28;20182;-86
2024/03/01 02:30:56;;;;;;;24.10;17.25;;;7.00;99.90;;;;;;5021409;28;20210;-86
2024/03/01 02:33:22;;;;;;;27.00;18.00;;;7.30;99.90;;;;;;5028490;28;20269;-86
2024/03/01 02:35:47;;;;;;;28.27;18.55;;;6.90;99.90;;;;;;5027625;28;20217;-85
2024/03/01 02:38:13;;;;;;;26.67;17.83;;;6.80;99.90;;;;;;5029107;28;20201;-86
2024/03/01 02:40:39;;;;;;;27.60;18.97;;;7.10;99.90;;;;;;5027040;28;20579;-87
2024/03/01 02:43:08;;;;;;;31.25;19.65;;;6.90;99.90;;;;;;5027391;28;20449;-86
2024/03/01 02:45:34;;;;;;;26.13;18.48;;;7.30;99.90;;;;;;5024015;28;20699;-86
2024/03/01 02:47:59;;;;;;;25.27;18.52;;;7.10;99.90;;;;;;5028461;28;20430;-87
2024/03/01 02:50:25;;;;;;;28.40;20.63;;;7.00;99.90;;;;;;5027231;28;20256;-87
2024/03/01 02:52:50;;;;;;;29.70;18.83;;;7.60;99.90;;;;;;5027145;28;20178;-87
2024/03/01 02:55:20;;;;;;;29.13;19.20;;;7.10;99.90;;;;;;5029734;28;20202;-87
2024/03/01 02:57:47;;;;;;;24.55;18.08;;;7.30;99.90;;;;;;5027331;28;20268;-87
2024/03/01 03:00:14;;;;;;;26.15;16.90;;;7.00;99.90;;;;;;5030755;28;20941;-87
2024/03/01 03:02:39;;;;;;;24.10;17.45;;;7.30;99.90;;;;;;5032648;28;20232;-87
2024/03/01 03:05:05;;;;;;;28.77;18.50;;;7.10;99.90;;;;;;5032294;28;20681;-88
2024/03/01 03:07:30;;;;;;;28.10;19.13;;;7.20;99.90;;;;;;5030300;28;20187;-88
2024/03/01 03:09:56;;;;;;;26.17;18.13;;;7.10;99.90;;;;;;5024377;28;20679;-88
2024/03/01 03:12:21;;;;;;;29.53;18.00;;;7.60;99.90;;;;;;5026648;28;20233;-88
2024/03/01 03:14:48;;;;;;;30.43;19.93;;;6.80;99.90;;;;;;5026716;28;20205;-87
2024/03/01 03:17:13;;;;;;;29.23;20.23;;;7.10;99.90;;;;;;5028232;28;20210;-88
2024/03/01 03:19:39;;;;;;;26.23;17.80;;;7.10;99.90;;;;;;5027217;28;20194;-87
2024/03/01 03:22:08;;;;;;;27.27;19.20;;;7.30;99.90;;;;;;5028559;28;20236;-86
2024/03/01 03:24:34;;;;;;;23.23;17.98;;;7.70;99.90;;;;;;5026951;28;20189;-88
2024/03/01 03:27:00;;;;;;;26.90;18.17;;;7.30;99.90;;;;;;5029356;28;20202;-88
2024/03/01 03:29:25;;;;;;;29.70;18.30;;;7.30;99.90;;;;;;5028524;28;20233;-88
2024/03/01 03:31:51;;;;;;;24.40;17.67;;;7.50;99.90;;;;;;5029315;28;20560;-88
2024/03/01 03:34:16;;;;;;;25.67;18.73;;;7.40;99.90;;;;;;5029302;28;20185;-88
2024/03/01 03:36:42;;;;;;;26.23;17.97;;;7.20;99.90;;;;;;5028025;28;20289;-88
2024/03/01 03:39:09;;;;;;;28.20;19.63;;;7.20;99.90;;;;;;5022685;28;20233;-87
2024/03/01 03:41:34;;;;;;;22.70;16.92;;;7.00;99.90;;;;;;5028294;28;20182;-87
2024/03/01 03:44:00;;;;;;;26.87;18.13;;;7.30;99.90;;;;;;5026720;28;20193;-87
2024/03/01 03:46:26;;;;;;;27.23;18.80;;;7.60;99.90;;;;;;5027731;28;20249;-87
2024/03/01 03:48:51;;;;;;;28.77;19.10;;;7.40;99.90;;;;;;5028317;28;20232;-87
2024/03/01 03:51:27;;;;;;;25.70;18.70;;;7.50;99.90;;;;;;5028453;28;20210;-87
2024/03/01 03:53:54;;;;;;;26.63;19.90;;;6.90;99.90;;;;;;5042474;28;20209;-87
2024/03/01 03:56:20;;;;;;;27.83;17.77;;;6.90;99.90;;;;;;5027849;28;20210;-87
2024/03/01 03:58:47;;;;;;;29.10;17.80;;;7.40;99.90;;;;;;5029621;28;20236;-87
2024/03/01 04:01:12;;;;;;;25.63;19.20;;;7.40;99.90;;;;;;5029797;28;20198;-88
2024/03/01 04:03:38;;;;;;;26.20;17.33;;;7.50;99.90;;;;;;5032686;28;20183;-87
2024/03/01 04:06:06;;;;;;;24.05;17.58;;;7.60;99.90;;;;;;5031118;28;20256;-88
2024/03/01 04:08:31;;;;;;;26.73;17.50;;;7.70;99.90;;;;;;5026667;28;20656;-89
2024/03/01 04:10:57;;;;;;;31.50;19.97;;;8.00;99.90;;;;;;5024172;28;20195;-88
2024/03/01 04:13:25;;;;;;;29.80;19.73;;;7.00;99.90;;;;;;5026013;28;20702;-88
2024/03/01 04:15:50;;;;;;;27.33;17.70;;;7.90;99.90;;;;;;5023183;28;20206;-88
2024/03/01 04:18:17;;;;;;;28.17;17.97;;;7.10;99.90;;;;;;5029054;28;20178;-88
2024/03/01 04:20:44;;;;;;;25.88;17.48;;;7.20;99.90;;;;;;5027195;28;20197;-88
2024/03/01 04:23:10;;;;;;;28.10;19.63;;;8.10;99.90;;;;;;5035631;28;20183;-88
2024/03/01 04:25:35;;;;;;;21.60;16.02;;;7.80;99.90;;;;;;5026788;28;20213;-88
2024/03/01 04:28:01;;;;;;;28.20;18.57;;;7.60;99.90;;;;;;5036901;28;20187;-87
2024/03/01 04:30:27;;;;;;;28.63;19.30;;;8.10;99.90;;;;;;5029900;28;20236;-88
2024/03/01 04:32:53;;;;;;;27.00;18.00;;;7.80;99.90;;;;;;5035202;28;20552;-87
2024/03/01 04:35:19;;;;;;;28.47;19.90;;;7.60;99.90;;;;;;5033392;28;20284;-86
2024/03/01 04:37:45;;;;;;;26.75;18.30;;;8.00;99.90;;;;;;5031757;28;20269;-85
2024/03/01 04:40:11;;;;;;;27.10;19.20;;;7.10;99.90;;;;;;5034394;28;20285;-87
2024/03/01 04:42:41;;;;;;;25.20;18.58;;;7.90;99.90;;;;;;5032015;28;20217;-86
2024/03/01 04:45:07;;;;;;;26.55;19.20;;;7.60;99.90;;;;;;5031336;28;20182;-87
2024/03/01 04:47:33;;;;;;;24.55;18.02;;;7.70;99.90;;;;;;5034652;28;20531;-86
2024/03/01 04:49:58;;;;;;;28.00;18.07;;;7.70;99.90;;;;;;5029523;28;20285;-86
2024/03/01 04:52:26;;;;;;;23.17;17.40;;;7.20;99.90;;;;;;5029130;28;20710;-87
2024/03/01 04:54:52;;;;;;;27.60;18.70;;;7.70;99.90;;;;;;5033184;28;20196;-87
2024/03/01 04:57:17;;;;;;;29.30;17.45;;;7.70;99.90;;;;;;5032713;28;20210;-87
2024/03/01 04:59:43;;;;;;;26.43;18.90;;;7.70;99.90;;;;;;5025848;28;20218;-87
2024/03/01 05:02:09;;;;;;;24.60;17.70;;;7.30;99.90;;;;;;5031189;28;20182;-87
2024/03/01 05:04:35;;;;;;;26.13;19.50;;;7.50;99.90;;;;;;5034159;28;20178;-87
2024/03/01 05:07:01;;;;;;;25.35;17.92;;;7.80;99.90;;;;;;5030476;28;20468;-87
2024/03/01 05:09:27;;;;;;;26.60;18.33;;;7.60;99.90;;;;;;5031070;28;20206;-87
2024/03/01 05:11:53;;;;;;;33.87;19.63;;;7.60;99.90;;;;;;5031947;28;20260;-86
2024/03/01 05:14:21;;;;;;;26.55;17.73;;;8.00;99.90;;;;;;5034136;28;20274;-86
2024/03/01 05:16:47;;;;;;;27.88;18.80;;;7.50;99.90;;;;;;5032503;28;20221;-88
2024/03/01 05:19:12;;;;;;;25.90;19.07;;;7.50;99.90;;;;;;5031345;28;20280;-86
2024/03/01 05:21:38;;;;;;;25.40;17.90;;;7.50;99.90;;;;;;5032314;28;20437;-86
2024/03/01 05:24:05;;;;;;;24.67;17.50;;;7.80;99.90;;;;;;5027908;28;20186;-86
2024/03/01 05:26:32;;;;;;;26.67;17.73;;;7.70;99.90;;;;;;5031665;28;20206;-87
2024/03/01 05:28:58;;;;;;;27.17;18.95;;;7.50;99.90;;;;;;5026758;28;20213;-86
2024/03/01 05:31:24;;;;;;;31.83;18.92;;;7.70;99.90;;;;;;5028559;28;20289;-86
2024/03/01 05:33:50;;;;;;;30.10;21.10;;;7.70;99.90;;;;;;5029835;28;20400;-87
2024/03/01 05:36:15;;;;;;;26.13;18.00;;;7.20;99.90;;;;;;5028464;28;20218;-86
2024/03/01 05:38:41;;;;;;;27.43;18.57;;;7.50;99.90;;;;;;5035236;28;20188;-87
2024/03/01 05:41:07;;;;;;;29.33;19.27;;;7.80;99.90;;;;;;5036096;28;20659;-86
2024/03/01 05:43:32;;;;;;;30.53;19.67;;;8.10;99.90;;;;;;5035307;28;20179;-87
2024/03/01 05:46:10;;;;;;;28.20;19.57;;;7.30;99.90;;;;;;5039707;28;20208;-87
2024/03/01 05:48:36;;;;;;;28.20;18.83;;;7.30;99.90;;;;;;5031791;28;20182;-87
2024/03/01 05:51:01;;;;;;;25.57;19.53;;;7.70;99.90;;;;;;5029236;28;20312;-88
2024/03/01 05:53:28;;;;;;;25.70;18.13;;;7.60;99.90;;;;;;5031859;28;20182;-88
2024/03/01 05:55:53;;;;;;;29.33;19.77;;;7.70;99.90;;;;;;5014034;28;20202;-87
2024/03/01 05:58:19;;;;;;;29.90;19.50;;;8.20;99.90;;;;;;5034332;28;20251;-86
2024/03/01 06:00:45;;;;;;;30.57;20.83;;;7.80;99.90;;;;;;5030112;28;20190;-87
2024/03/01 06:03:11;;;;;;;30.48;20.38;;;7.60;99.90;;;;;;5031730;28;20547;-87
2024/03/01 06:05:37;;;;;;;30.77;20.70;;;7.90;99.90;;;;;;5033138;28;20205;-88
2024/03/01 06:08:03;;;;;;;31.60;21.37;;;7.60;99.90;;;;;;5040754;28;20194;-87
2024/03/01 06:10:29;;;;;;;27.75;19.15;;;7.60;99.90;;;;;;5031051;28;20204;-87
2024/03/01 06:12:54;;;;;;;31.50;22.47;;;7.50;99.90;;;;;;5028859;28;20178;-87
2024/03/01 06:15:20;;;;;;;28.73;19.93;;;7.20;99.90;;;;;;5033394;28;20203;-87
2024/03/01 06:17:46;;;;;;;31.97;20.63;;;6.50;99.90;;;;;;5033754;28;20415;-87
2024/03/01 06:20:11;;;;;;;33.57;21.30;;;7.50;99.90;;;;;;5036316;28;20195;-88
2024/03/01 06:22:37;;;;;;;30.23;21.40;;;7.50;99.90;;;;;;5039143;28;20186;-85
2024/03/01 06:25:03;;;;;;;28.33;20.20;;;7.70;99.90;;;;;;5032096;28;20213;-86
2024/03/01 06:27:28;;;;;;;30.97;20.90;;;8.00;99.90;;;;;;5039445;28;20257;-87
2024/03/01 06:29:54;;;;;;;32.80;20.70;;;7.60;99.90;;;;;;5034471;28;20470;-87
2024/03/01 06:32:19;;;;;;;29.03;20.13;;;7.70;99.90;;;;;;5036702;28;20178;-86
2024/03/01 06:34:47;;;;;;;29.43;20.60;;;7.90;99.90;;;;;;5042169;28;20202;-86
2024/03/01 06:37:13;;;;;;;31.25;19.95;;;7.60;99.90;;;;;;5042192;28;20351;-87
2024/03/01 06:39:38;;;;;;;28.53;19.57;;;7.80;99.90;;;;;;5044340;28;20183;-87
2024/03/01 06:42:04;;;;;;;28.70;20.50;;;7.90;99.90;;;;;;5034776;28;20977;-87
2024/03/01 06:44:29;;;;;;;28.13;19.97;;;8.10;99.90;;;;;;5031135;28;20695;-87
2024/03/01 06:46:55;;;;;;;25.03;18.23;;;8.10;99.90;;;;;;5034041;28;20202;-88
2024/03/01 06:49:20;;;;;;;32.37;19.40;;;7.90;99.90;;;;;;5031140;28;20290;-88
2024/03/01 06:51:47;;;;;;;30.90;19.40;;;7.90;99.90;;;;;;5027553;28;20568;-87
2024/03/01 06:54:12;;;;;;;28.08;19.58;;;8.10;99.90;;;;;;5030457;28;20563;-86
2024/03/01 06:56:46;;;;;;;31.00;19.80;;;8.00;99.90;;;;;;5027928;28;20202;-87
2024/03/01 06:59:12;;;;;;;29.65;20.15;;;9.70;99.90;;;;;;5022010;28;20744;-87
2024/03/01 07:01:38;;;;;;;28.03;18.20;;;8.10;99.90;;;;;;5029138;28;20191;-87
2024/03/01 07:04:04;;;;;;;28.83;18.67;;;8.00;99.90;;;;;;5031994;28;20472;-86
2024/03/01 07:06:31;;;;;;;29.03;19.53;;;7.70;99.90;;;;;;5035549;28;20431;-87
2024/03/01 07:08:57;;;;;;;25.80;19.08;;;8.10;99.90;;;;;;5029572;28;20182;-88
2024/03/01 07:11:23;;;;;;;27.88;19.60;;;8.50;99.90;;;;;;5033030;28;20214;-89
2024/03/01 07:13:48;;;;;;;31.05;21.98;;;8.30;99.90;;;;;;5028360;28;20189;-87
2024/03/01 07:16:14;;;;;;;30.53;21.13;;;8.70;99.90;;;;;;5031433;28;20252;-89
2024/03/01 07:18:40;;;;;;;29.07;19.93;;;8.30;99.90;;;;;;5033056;28;20274;-89
2024/03/01 07:21:07;;;;;;;28.70;20.00;;;8.50;99.90;;;;;;5027975;28;20623;-88
2024/03/01 07:23:34;;;;;;;27.02;20.33;;;9.00;99.90;;;;;;5031481;28;20221;-89
2024/03/01 07:33:46;;;;;;;28.73;19.38;;;8.90;99.90;;;;;;5212968;22;20233;-90
2024/03/01 07:36:13;;;;;;;26.30;19.23;;;9.00;99.90;;;;;;5073883;28;20235;-92
2024/03/01 07:38:39;;;;;;;24.10;18.15;;;8.80;99.90;;;;;;5188982;22;20861;-89
2024/03/01 07:41:05;;;;;;;26.73;18.67;;;9.30;99.90;;;;;;5060829;28;20181;-93
2024/03/01 07:43:30;;;;;;;27.47;20.03;;;9.40;99.90;;;;;;5058661;28;20181;-92
2024/03/01 07:45:56;;;;;;;25.67;19.03;;;8.80;99.90;;;;;;5069555;28;20969;-93
2024/03/01 07:48:23;;;;;;;27.53;17.67;;;9.00;99.90;;;;;;5058047;28;20202;-90
2024/03/01 07:50:48;;;;;;;29.95;18.40;;;9.10;99.90;;;;;;5059659;28;20786;-90
2024/03/01 07:53:14;;;;;;;25.20;18.03;;;9.60;99.90;;;;;;5059137;28;20174;-90
2024/03/01 07:55:40;;;;;;;24.00;18.17;;;9.30;99.90;;;;;;5060680;28;20199;-91
2024/03/01 07:58:06;;;;;;;29.23;20.30;;;9.60;99.90;;;;;;5063470;28;20187;-90
2024/03/01 08:00:31;;;;;;;28.50;18.97;;;9.70;99.90;;;;;;5058232;28;20190;-90
2024/03/01 08:03:08;;;;;;;24.90;17.53;;;9.30;99.90;;;;;;5058242;28;20428;-91
2024/03/01 08:05:35;;;;;;;24.40;17.40;;;9.70;99.90;;;;;;5059910;28;20215;-90
2024/03/01 08:08:01;;;;;;;28.25;18.30;;;9.90;99.90;;;;;;5057320;28;20206;-90
2024/03/01 08:10:32;;;;;;;24.93;17.37;;;10.00;99.90;;;;;;5061501;28;20210;-91
2024/03/01 08:12:57;;;;;;;28.48;18.67;;;10.20;99.90;;;;;;5056301;28;20209;-92
2024/03/01 08:15:28;;;;;;;29.00;16.80;;;9.90;99.90;;;;;;5055851;28;20366;-92
2024/03/01 08:17:54;;;;;;;23.52;16.25;;;11.40;99.90;;;;;;5057848;28;20246;-92
2024/03/01 08:25:33;;;;;;;27.98;18.17;;;10.20;99.90;;;;;;5499446;22;20253;-93
2024/03/01 08:27:59;;;;;;;25.58;16.42;;;10.30;99.90;;;;;;5066017;28;20566;-93
2024/03/01 08:30:51;;;;;;;25.30;18.33;;;10.80;99.90;;;;;;5066509;28;20277;-94
2024/03/01 08:33:20;;;;;;;25.55;17.30;;;12.00;99.90;;;;;;5089842;28;20190;-93
2024/03/01 08:35:48;;;;;;;22.02;14.07;;;10.80;99.90;;;;;;5098033;28;20242;-93
2024/03/01 08:38:49;;;;;;;25.35;15.23;;;10.70;99.90;;;;;;5421190;22;20299;-95
2024/03/01 08:41:15;;;;;;;17.92;13.82;;;10.50;99.90;;;;;;5252059;22;20232;-92
2024/03/01 08:43:42;;;;;;;16.70;12.13;;;10.90;99.90;;;;;;5079500;28;20193;-90
2024/03/01 08:46:27;;;;;;;16.67;12.20;;;10.40;99.90;;;;;;5077810;28;20210;-91
2024/03/01 08:59:42;;;;;;;11.27;9.60;;;9.80;99.90;;;;;;5073394;28;20220;-90
2024/03/01 09:02:26;;;;;;;13.07;9.35;;;11.40;99.90;;;;;;5050675;28;20192;-91
2024/03/01 09:04:52;;;;;;;12.65;9.13;;;;;;;;;;5077105;28;20180;-91
2024/03/01 09:07:26;;;;;;;14.40;10.00;;;11.50;99.40;;;;;;5064946;28;20196;-89
2024/03/01 09:10:22;;;;;;;13.30;8.93;;;11.10;99.60;;;;;;5045279;28;20235;-92
2024/03/01 09:12:49;;;;;;;13.30;9.80;;;11.50;99.60;;;;;;5066042;28;20177;-93
2024/03/01 09:15:21;;;;;;;15.05;9.82;;;11.70;99.90;;;;;;5043882;28;20238;-92
2024/03/01 09:17:50;;;;;;;12.55;9.40;;;11.80;99.70;;;;;;5052260;28;20191;-92
2024/03/01 09:20:22;;;;;;;11.30;8.95;;;11.40;99.40;;;;;;5062735;28;20182;-93
2024/03/01 09:22:47;;;;;;;11.43;8.85;;;12.50;99.90;;;;;;5051472;28;20234;-92
2024/03/01 09:25:41;;;;;;;10.43;8.77;;;11.60;99.90;;;;;;5047991;28;20205;-93
2024/03/01 09:28:08;;;;;;;10.45;8.30;;;11.40;99.90;;;;;;5051841;28;20212;-89
2024/03/01 09:30:34;;;;;;;11.25;9.10;;;11.50;99.90;;;;;;5040096;28;20216;-91
2024/03/01 09:33:00;;;;;;;12.73;8.10;;;11.40;99.90;;;;;;5043009;28;20185;-92
2024/03/01 09:35:26;;;;;;;9.98;7.80;;;11.40;99.90;;;;;;5040565;28;21101;-91
2024/03/01 09:37:55;;;;;;;11.00;8.73;;;11.80;99.90;;;;;;5037604;28;20183;-90
2024/03/01 09:40:33;;;;;;;11.85;9.13;;;11.90;99.90;;;;;;5055054;28;20196;-92
2024/03/01 09:43:14;;;;;;;16.67;9.10;;;11.50;99.90;;;;;;5034199;28;20614;-92
2024/03/01 09:46:01;;;;;;;10.50;8.43;;;11.50;99.90;;;;;;5034188;28;20204;-91
2024/03/01 09:48:44;;;;;;;10.30;6.90;;;11.60;99.90;;;;;;5040334;28;20189;-93
2024/03/01 09:51:25;;;;;;;10.32;7.65;;;11.50;99.90;;;;;;5046192;28;20208;-93
2024/03/01 09:54:16;;;;;;;7.32;6.50;;;11.40;99.90;;;;;;5050592;28;20211;-94
2024/03/01 09:57:11;;;;;;;7.65;6.78;;;11.40;99.90;;;;;;5045561;28;20264;-94
2024/03/01 09:59:59;;;;;;;8.32;6.75;;;11.00;99.90;;;;;;5076291;28;20179;-94
2024/03/01 10:02:38;;;;;;;7.75;6.90;;;11.10;99.90;;;;;;5042992;28;20189;-85
2024/03/01 10:05:22;;;;;;;9.18;7.03;;;11.20;99.90;;;;;;5048834;28;20675;-91
2024/03/01 10:08:21;;;;;;;8.10;6.32;;;11.20;99.90;;;;;;5164008;22;20223;-92
2024/03/01 10:11:13;;;;;;;8.68;7.07;;;11.00;99.90;;;;;;5063103;28;20223;-91
2024/03/01 10:14:06;;;;;;;7.43;6.15;;;11.20;99.90;;;;;;5053513;28;20545;-90
2024/03/01 10:20:31;;;;;;;7.85;6.20;;;11.30;99.90;;;;;;4961834;28;20198;-91
2024/03/01 10:23:11;;;;;;;7.30;6.20;;;11.20;99.90;;;;;;5029818;28;20196;-92
2024/03/01 10:25:44;;;;;;;6.95;5.68;;;11.30;99.90;;;;;;5050748;28;20205;-92
2024/03/01 10:28:20;;;;;;;9.10;6.88;;;11.20;99.90;;;;;;5049034;28;20196;-92
2024/03/01 10:30:56;;;;;;;7.53;5.70;;;11.70;99.90;;;;;;5037397;28;20208;-91
2024/03/01 10:33:37;;;;;;;6.45;5.55;;;13.20;99.90;;;;;;5038573;28;20195;-90
2024/03/01 10:36:22;;;;;;;7.30;6.50;;;12.20;99.90;;;;;;5033204;28;20216;-87
2024/03/01 10:39:21;;;;;;;8.55;6.55;;;11.70;99.90;;;;;;5029072;28;20189;-88
2024/03/01 10:42:10;;;;;;;6.63;5.63;;;11.70;99.90;;;;;;5028057;28;20188;-87
2024/03/01 10:44:51;;;;;;;7.93;5.65;;;11.50;99.90;;;;;;5029801;28;20300;-87
2024/03/01 10:47:25;;;;;;;6.35;5.75;;;12.00;99.90;;;;;;5039864;28;20181;-87
2024/03/01 10:50:00;;;;;;;9.35;6.63;;;12.60;99.90;;;;;;5031989;28;20200;-88
2024/03/01 10:52:43;;;;;;;6.80;5.50;;;12.40;99.90;;;;;;5029095;28;20185;-87
2024/03/01 10:55:34;;;;;;;8.40;6.57;;;12.10;99.90;;;;;;5022965;28;20259;-88
2024/03/01 10:58:22;;;;;;;10.30;6.35;;;12.30;99.90;;;;;;5026831;28;20181;-92
2024/03/01 11:00:58;;;;;;;9.60;8.60;;;13.10;99.90;;;;;;5037426;28;20239;-92
2024/03/01 11:03:29;;;;;;;8.63;7.10;;;12.30;99.90;;;;;;5040345;28;20229;-93
2024/03/01 11:06:25;;;;;;;8.20;6.95;;;11.80;99.90;;;;;;5050917;28;20236;-92
2024/03/01 11:09:09;;;;;;;7.40;6.70;;;12.50;99.90;;;;;;5040281;28;20204;-93
2024/03/01 11:11:55;;;;;;;8.02;6.18;;;14.00;99.90;;;;;;5048751;28;20216;-92
2024/03/01 11:14:26;;;;;;;7.70;6.85;;;12.30;99.90;;;;;;5046152;28;20187;-92
2024/03/01 11:16:55;;;;;;;7.95;7.00;;;12.10;99.90;;;;;;5023896;28;20205;-92
2024/03/01 11:19:29;;;;;;;9.00;6.75;;;13.10;99.90;;;;;;5039029;28;20205;-92
2024/03/01 11:22:28;;;;;;;8.38;6.40;;;14.30;99.90;;;;;;5037953;28;20189;-92
2024/03/01 11:28:01;;;;;;;7.25;6.40;;;13.00;99.90;;;;;;5048295;28;20201;-91
2024/03/01 11:30:30;;;;;;;6.15;5.55;;;12.90;99.90;;;;;;5030847;28;20388;-94
2024/03/01 11:33:03;;;;;;;8.75;5.88;;;13.80;99.90;;;;;;5044773;28;20178;-92
2024/03/01 11:35:40;;;;;;;7.80;6.60;;;12.70;99.90;;;;;;5040922;28;20231;-92
2024/03/01 11:38:34;;;;;;;7.63;5.28;;;13.00;99.90;;;;;;5042496;28;20189;-91
2024/03/01 11:41:06;;;;;;;6.60;5.60;;;14.10;99.90;;;;;;5003135;28;20622;-92
2024/03/01 11:43:47;;;;;;;5.95;5.35;;;15.40;99.90;;;;;;5046524;28;20174;-92
2024/03/01 11:46:50;;;;;;;8.63;5.40;;;13.80;99.90;;;;;;5049592;28;20209;-92
2024/03/01 11:49:33;;;;;;;12.57;6.43;;;13.80;99.90;;;;;;5057321;28;20189;-92
2024/03/01 11:52:11;;;;;;;16.77;6.70;;;14.90;99.90;;;;;;5041040;28;20185;-92
2024/03/01 11:54:49;;;;;;;5.72;5.00;;;14.70;99.90;;;;;;5045153;28;20199;-92
2024/03/01 11:57:31;;;;;;;7.00;5.15;;;16.50;99.90;;;;;;5039343;28;20205;-92
2024/03/01 12:00:03;;;;;;;5.80;4.85;;;14.60;99.90;;;;;;5037157;28;20292;-91
2024/03/01 12:03:21;;;;;;;9.15;5.60;;;14.30;99.90;;;;;;5057411;28;20240;-91
2024/03/01 12:06:00;;;;;;;5.75;5.15;;;14.40;99.90;;;;;;5060213;28;20560;-92
2024/03/01 12:08:44;;;;;;;9.88;5.55;;;14.40;99.90;;;;;;5037502;28;20740;-92
2024/03/01 12:11:59;;;;;;;7.40;5.97;;;14.60;99.90;;;;;;5042339;28;20285;-92
2024/03/01 12:14:31;;;;;;;6.72;5.60;;;14.50;99.90;;;;;;5032703;28;20189;-92
2024/03/01 12:17:12;;;;;;;6.75;5.70;;;15.90;99.90;;;;;;5038832;28;20201;-92
2024/03/01 12:19:56;;;;;;;6.95;5.35;;;14.30;99.90;;;;;;5043681;28;20676;-92
2024/03/01 12:22:40;;;;;;;11.52;5.88;;;14.60;99.90;;;;;;5048621;28;20260;-92
2024/03/01 12:25:06;;;;;;;7.57;4.70;;;14.70;99.60;;;;;;5042187;28;20169;-93
2024/03/01 12:27:39;;;;;;;6.63;5.03;;;14.80;99.90;;;;;;5042163;28;20181;-92
2024/03/01 12:30:31;;;;;;;8.10;5.68;;;14.90;98.70;;;;;;5039646;28;20611;-91
2024/03/01 12:33:12;;;;;;;8.13;5.53;;;14.60;98.80;;;;;;5040527;28;20201;-92
2024/03/01 12:35:56;;;;;;;10.40;5.55;;;14.20;99.40;;;;;;5039609;28;20205;-92
2024/03/01 12:38:48;;;;;;;4.95;4.45;;;15.80;99.90;;;;;;5049484;28;20252;-92
2024/03/01 12:41:48;;;;;;;4.95;4.45;;;14.50;99.90;;;;;;5055319;28;20189;-92
2024/03/01 12:44:55;;;;;;;5.13;4.60;;;14.60;98.80;;;;;;5064138;28;20210;-91
2024/03/01 12:48:01;;;;;;;7.25;4.85;;;14.80;99.10;;;;;;5078989;28;20559;-92
2024/03/01 12:50:47;;;;;;;4.93;4.45;;;14.10;98.40;;;;;;5059415;28;20205;-92
2024/03/01 12:53:40;;;;;;;6.15;5.53;;;14.90;99.90;;;;;;5032201;28;20186;-91
2024/03/01 12:56:21;;;;;;;4.78;4.20;;;14.60;99.90;;;;;;5059226;28;20215;-91
2024/03/01 12:59:03;;;;;;;5.05;4.55;;;15.10;98.70;;;;;;5052388;28;20249;-93
2024/03/01 13:01:47;;;;;;;5.25;4.22;;;14.70;98.60;;;;;;5036853;28;20526;-92
2024/03/01 13:04:58;;;;;;;4.63;3.92;;;14.80;98.30;;;;;;5055122;28;20185;-91
2024/03/01 13:07:26;;;;;;;5.38;4.40;;;14.20;98.20;;;;;;5036106;28;20213;-93
2024/03/01 13:09:58;;;;;;;5.40;4.40;;;14.20;98.60;;;;;;5042408;28;20197;-92
2024/03/01 13:12:39;;;;;;;9.55;8.50;;;13.80;99.10;;;;;;5045845;28;20173;-91
2024/03/01 13:15:18;;;;;;;13.65;11.48;;;14.20;99.70;;;;;;5037528;28;20628;-91
2024/03/01 13:18:15;;;;;;;16.73;12.70;;;14.60;99.90;;;;;;5036131;28;20689;-91
2024/03/01 13:20:59;;;;;;;18.67;12.80;;;14.20;99.90;;;;;;5038632;28;20673;-92
2024/03/01 13:23:54;;;;;;;16.95;13.27;;;14.70;99.90;;;;;;5050454;28;20263;-91
2024/03/01 13:27:06;;;;;;;16.30;12.80;;;13.20;99.90;;;;;;5084654;22;21399;-88
2024/03/01 13:29:33;;;;;;;18.55;13.45;;;13.40;99.90;;;;;;5072498;28;20187;-89
2024/03/01 13:32:11;;;;;;;15.48;11.90;;;13.50;99.90;;;;;;5075498;28;20638;-90